sensor_id;sensor_type;location;lat;lon;timestamp;P1;durP1;ratioP1;P2;durP2;ratioP2
61393;SDS011;48555;50.952;-0.120;2024-03-08T00:02:24;42.58;;;27.80;;
61393;SDS011;48555;50.952;-0.120;2024-03-08T00:04:49;48.42;;;27.73;;
61393;SDS011;48555;50.952;-0.120;2024-03-08T00:07:14;46.13;;;27.70;;
61393;SDS011;48555;50.952;-0.120;2024-03-08T00:09:40;44.22;;;29.05;;
61393;SDS011;48555;50.952;-0.120;2024-03-08T00:12:06;43.97;;;26.35;;
61393;SDS011;48555;50.952;-0.120;2024-03-08T00:14:31;43.25;;;27.15;;
61393;SDS011;48555;50.952;-0.120;2024-03-08T00:16:57;44.15;;;28.65;;
61393;SDS011;48555;50.952;-0.120;2024-03-08T00:19:22;47.38;;;29.50;;
61393;SDS011;48555;50.952;-0.120;2024-03-08T00:21:47;44.40;;;27.55;;
61393;SDS011;48555;50.952;-0.120;2024-03-08T00:24:13;43.60;;;27.92;;
61393;SDS011;48555;50.952;-0.120;2024-03-08T00:26:38;44.00;;;27.40;;
61393;SDS011;48555;50.952;-0.120;2024-03-08T00:29:04;44.08;;;27.27;;
61393;SDS011;48555;50.952;-0.120;2024-03-08T00:31:29;49.17;;;29.33;;
61393;SDS011;48555;50.952;-0.120;2024-03-08T00:33:56;43.53;;;27.55;;
61393;SDS011;48555;50.952;-0.120;2024-03-08T00:36:22;48.10;;;29.30;;
61393;SDS011;48555;50.952;-0.120;2024-03-08T00:38:47;44.95;;;26.60;;
61393;SDS011;48555;50.952;-0.120;2024-03-08T00:41:13;48.00;;;27.70;;
61393;SDS011;48555;50.952;-0.120;2024-03-08T00:43:38;41.67;;;26.05;;
61393;SDS011;48555;50.952;-0.120;2024-03-08T00:46:04;43.70;;;27.10;;
61393;SDS011;48555;50.952;-0.120;2024-03-08T00:48:29;40.10;;;24.08;;
61393;SDS011;48555;50.952;-0.120;2024-03-08T00:50:55;39.47;;;22.25;;
61393;SDS011;48555;50.952;-0.120;2024-03-08T00:53:21;37.03;;;20.60;;
61393;SDS011;48555;50.952;-0.120;2024-03-08T00:55:46;43.67;;;27.38;;
61393;SDS011;48555;50.952;-0.120;2024-03-08T00:58:12;44.50;;;26.52;;
61393;SDS011;48555;50.952;-0.120;2024-03-08T01:00:38;41.58;;;25.88;;
61393;SDS011;48555;50.952;-0.120;2024-03-08T01:03:06;45.08;;;26.15;;
61393;SDS011;48555;50.952;-0.120;2024-03-08T01:05:31;43.03;;;25.23;;
61393;SDS011;48555;50.952;-0.120;2024-03-08T01:07:57;41.47;;;24.90;;
61393;SDS011;48555;50.952;-0.120;2024-03-08T01:10:22;41.78;;;25.85;;
61393;SDS011;48555;50.952;-0.120;2024-03-08T01:12:48;39.47;;;24.63;;
61393;SDS011;48555;50.952;-0.120;2024-03-08T01:15:14;42.45;;;25.67;;
61393;SDS011;48555;50.952;-0.120;2024-03-08T01:17:40;44.45;;;25.58;;
61393;SDS011;48555;50.952;-0.120;2024-03-08T01:20:06;39.72;;;23.75;;
61393;SDS011;48555;50.952;-0.120;2024-03-08T01:22:32;38.40;;;24.17;;
61393;SDS011;48555;50.952;-0.120;2024-03-08T01:24:58;40.25;;;26.55;;
61393;SDS011;48555;50.952;-0.120;2024-03-08T01:27:23;43.42;;;25.73;;
61393;SDS011;48555;50.952;-0.120;2024-03-08T01:29:49;37.80;;;23.02;;
61393;SDS011;48555;50.952;-0.120;2024-03-08T01:32:15;45.17;;;26.35;;
61393;SDS011;48555;50.952;-0.120;2024-03-08T01:34:41;39.42;;;24.15;;
61393;SDS011;48555;50.952;-0.120;2024-03-08T01:37:07;42.38;;;25.92;;
61393;SDS011;48555;50.952;-0.120;2024-03-08T01:39:32;39.63;;;23.90;;
61393;SDS011;48555;50.952;-0.120;2024-03-08T01:41:58;38.55;;;23.30;;
61393;SDS011;48555;50.952;-0.120;2024-03-08T01:44:23;40.17;;;24.77;;
61393;SDS011;48555;50.952;-0.120;2024-03-08T01:46:49;38.97;;;22.75;;
61393;SDS011;48555;50.952;-0.120;2024-03-08T01:49:17;40.58;;;23.73;;
61393;SDS011;48555;50.952;-0.120;2024-03-08T01:51:43;39.72;;;23.30;;
61393;SDS011;48555;50.952;-0.120;2024-03-08T01:54:08;38.58;;;23.05;;
61393;SDS011;48555;50.952;-0.120;2024-03-08T01:56:35;37.80;;;21.52;;
61393;SDS011;48555;50.952;-0.120;2024-03-08T01:59:02;37.42;;;21.88;;
61393;SDS011;48555;50.952;-0.120;2024-03-08T02:01:28;37.40;;;22.13;;
61393;SDS011;48555;50.952;-0.120;2024-03-08T02:03:54;39.15;;;23.88;;
61393;SDS011;48555;50.952;-0.120;2024-03-08T02:06:19;38.58;;;21.92;;
61393;SDS011;48555;50.952;-0.120;2024-03-08T02:08:45;39.00;;;23.58;;
61393;SDS011;48555;50.952;-0.120;2024-03-08T02:11:11;42.92;;;24.92;;
61393;SDS011;48555;50.952;-0.120;2024-03-08T02:13:37;41.30;;;23.83;;
61393;SDS011;48555;50.952;-0.120;2024-03-08T02:16:02;37.63;;;21.83;;
61393;SDS011;48555;50.952;-0.120;2024-03-08T02:18:29;39.40;;;21.38;;
61393;SDS011;48555;50.952;-0.120;2024-03-08T02:20:59;36.83;;;20.45;;
61393;SDS011;48555;50.952;-0.120;2024-03-08T02:23:26;42.90;;;24.17;;
61393;SDS011;48555;50.952;-0.120;2024-03-08T02:25:51;36.75;;;22.05;;
61393;SDS011;48555;50.952;-0.120;2024-03-08T02:28:18;40.28;;;22.80;;
61393;SDS011;48555;50.952;-0.120;2024-03-08T02:30:47;39.83;;;23.23;;
61393;SDS011;48555;50.952;-0.120;2024-03-08T02:33:14;40.67;;;23.52;;
61393;SDS011;48555;50.952;-0.120;2024-03-08T02:35:44;36.97;;;22.75;;
61393;SDS011;48555;50.952;-0.120;2024-03-08T02:38:15;35.40;;;22.23;;
61393;SDS011;48555;50.952;-0.120;2024-03-08T02:40:45;38.38;;;22.88;;
61393;SDS011;48555;50.952;-0.120;2024-03-08T02:43:12;35.45;;;21.40;;
61393;SDS011;48555;50.952;-0.120;2024-03-08T02:45:39;41.42;;;21.30;;
61393;SDS011;48555;50.952;-0.120;2024-03-08T02:48:06;33.40;;;20.17;;
61393;SDS011;48555;50.952;-0.120;2024-03-08T02:50:32;32.28;;;17.98;;
61393;SDS011;48555;50.952;-0.120;2024-03-08T02:52:59;36.45;;;22.60;;
61393;SDS011;48555;50.952;-0.120;2024-03-08T02:55:25;34.90;;;20.08;;
61393;SDS011;48555;50.952;-0.120;2024-03-08T02:57:51;39.50;;;22.60;;
61393;SDS011;48555;50.952;-0.120;2024-03-08T03:00:17;31.63;;;17.38;;
61393;SDS011;48555;50.952;-0.120;2024-03-08T03:02:44;41.05;;;20.17;;
61393;SDS011;48555;50.952;-0.120;2024-03-08T03:05:10;34.88;;;18.90;;
61393;SDS011;48555;50.952;-0.120;2024-03-08T03:07:36;33.67;;;19.38;;
61393;SDS011;48555;50.952;-0.120;2024-03-08T03:10:02;34.75;;;21.13;;
61393;SDS011;48555;50.952;-0.120;2024-03-08T03:12:28;34.92;;;20.92;;
61393;SDS011;48555;50.952;-0.120;2024-03-08T03:14:55;33.60;;;19.40;;
61393;SDS011;48555;50.952;-0.120;2024-03-08T03:17:21;35.90;;;21.52;;
61393;SDS011;48555;50.952;-0.120;2024-03-08T03:19:47;34.63;;;20.55;;
61393;SDS011;48555;50.952;-0.120;2024-03-08T03:22:13;34.47;;;21.00;;
61393;SDS011;48555;50.952;-0.120;2024-03-08T03:24:38;34.45;;;20.60;;
61393;SDS011;48555;50.952;-0.120;2024-03-08T03:27:04;33.30;;;19.30;;
61393;SDS011;48555;50.952;-0.120;2024-03-08T03:29:36;35.75;;;20.05;;
61393;SDS011;48555;50.952;-0.120;2024-03-08T03:32:01;36.38;;;19.92;;
61393;SDS011;48555;50.952;-0.120;2024-03-08T03:34:28;34.42;;;20.77;;
61393;SDS011;48555;50.952;-0.120;2024-03-08T03:36:54;35.53;;;21.90;;
61393;SDS011;48555;50.952;-0.120;2024-03-08T03:39:20;34.95;;;20.45;;
61393;SDS011;48555;50.952;-0.120;2024-03-08T03:41:47;36.92;;;20.95;;
61393;SDS011;48555;50.952;-0.120;2024-03-08T03:44:17;25.15;;;15.52;;
61393;SDS011;48555;50.952;-0.120;2024-03-08T03:46:42;30.98;;;19.52;;
61393;SDS011;48555;50.952;-0.120;2024-03-08T03:49:09;36.17;;;21.10;;
61393;SDS011;48555;50.952;-0.120;2024-03-08T03:51:34;35.35;;;21.08;;
61393;SDS011;48555;50.952;-0.120;2024-03-08T03:53:59;29.65;;;18.55;;
61393;SDS011;48555;50.952;-0.120;2024-03-08T03:56:25;28.58;;;15.15;;
61393;SDS011;48555;50.952;-0.120;2024-03-08T03:58:51;36.00;;;20.20;;
61393;SDS011;48555;50.952;-0.120;2024-03-08T04:01:17;33.78;;;20.13;;
61393;SDS011;48555;50.952;-0.120;2024-03-08T04:03:42;33.55;;;19.42;;
61393;SDS011;48555;50.952;-0.120;2024-03-08T04:06:08;33.78;;;19.45;;
61393;SDS011;48555;50.952;-0.120;2024-03-08T04:08:33;32.08;;;20.10;;
61393;SDS011;48555;50.952;-0.120;2024-03-08T04:11:00;30.20;;;17.10;;
61393;SDS011;48555;50.952;-0.120;2024-03-08T04:13:25;33.17;;;20.30;;
61393;SDS011;48555;50.952;-0.120;2024-03-08T04:15:51;30.52;;;18.10;;
61393;SDS011;48555;50.952;-0.120;2024-03-08T04:18:17;33.38;;;18.35;;
61393;SDS011;48555;50.952;-0.120;2024-03-08T04:20:43;31.98;;;17.70;;
61393;SDS011;48555;50.952;-0.120;2024-03-08T04:23:08;30.75;;;17.05;;
61393;SDS011;48555;50.952;-0.120;2024-03-08T04:25:33;30.80;;;18.90;;
61393;SDS011;48555;50.952;-0.120;2024-03-08T04:27:59;30.60;;;18.52;;
61393;SDS011;48555;50.952;-0.120;2024-03-08T04:30:24;25.65;;;16.80;;
61393;SDS011;48555;50.952;-0.120;2024-03-08T04:32:50;31.98;;;20.80;;
61393;SDS011;48555;50.952;-0.120;2024-03-08T04:35:15;33.22;;;19.98;;
61393;SDS011;48555;50.952;-0.120;2024-03-08T04:37:41;32.15;;;19.05;;
61393;SDS011;48555;50.952;-0.120;2024-03-08T04:40:06;19.88;;;13.02;;
61393;SDS011;48555;50.952;-0.120;2024-03-08T04:42:32;28.52;;;17.27;;
61393;SDS011;48555;50.952;-0.120;2024-03-08T04:44:58;28.85;;;16.58;;
61393;SDS011;48555;50.952;-0.120;2024-03-08T04:47:24;30.38;;;17.45;;
61393;SDS011;48555;50.952;-0.120;2024-03-08T04:49:49;32.83;;;16.50;;
61393;SDS011;48555;50.952;-0.120;2024-03-08T04:52:15;29.17;;;16.90;;
61393;SDS011;48555;50.952;-0.120;2024-03-08T04:54:41;33.88;;;20.40;;
61393;SDS011;48555;50.952;-0.120;2024-03-08T04:57:06;31.60;;;18.10;;
61393;SDS011;48555;50.952;-0.120;2024-03-08T04:59:32;31.77;;;18.02;;
61393;SDS011;48555;50.952;-0.120;2024-03-08T05:01:57;34.50;;;17.25;;
61393;SDS011;48555;50.952;-0.120;2024-03-08T05:04:23;26.25;;;15.05;;
61393;SDS011;48555;50.952;-0.120;2024-03-08T05:06:48;30.17;;;17.05;;
61393;SDS011;48555;50.952;-0.120;2024-03-08T05:09:14;25.10;;;14.23;;
61393;SDS011;48555;50.952;-0.120;2024-03-08T05:11:43;31.70;;;18.38;;
61393;SDS011;48555;50.952;-0.120;2024-03-08T05:14:10;28.83;;;17.58;;
61393;SDS011;48555;50.952;-0.120;2024-03-08T05:16:36;26.48;;;15.50;;
61393;SDS011;48555;50.952;-0.120;2024-03-08T05:19:04;26.48;;;14.38;;
61393;SDS011;48555;50.952;-0.120;2024-03-08T05:21:29;28.90;;;15.57;;
61393;SDS011;48555;50.952;-0.120;2024-03-08T05:23:54;24.98;;;14.88;;
61393;SDS011;48555;50.952;-0.120;2024-03-08T05:26:20;31.33;;;18.65;;
61393;SDS011;48555;50.952;-0.120;2024-03-08T05:28:47;31.42;;;18.23;;
61393;SDS011;48555;50.952;-0.120;2024-03-08T05:31:22;29.05;;;15.60;;
61393;SDS011;48555;50.952;-0.120;2024-03-08T05:33:48;18.55;;;11.02;;
61393;SDS011;48555;50.952;-0.120;2024-03-08T05:36:14;24.83;;;15.55;;
61393;SDS011;48555;50.952;-0.120;2024-03-08T05:38:41;26.52;;;16.38;;
61393;SDS011;48555;50.952;-0.120;2024-03-08T05:41:08;24.52;;;14.93;;
61393;SDS011;48555;50.952;-0.120;2024-03-08T05:43:34;29.38;;;17.38;;
61393;SDS011;48555;50.952;-0.120;2024-03-08T05:45:59;30.30;;;18.88;;
61393;SDS011;48555;50.952;-0.120;2024-03-08T05:48:24;28.73;;;16.58;;
61393;SDS011;48555;50.952;-0.120;2024-03-08T05:50:50;29.35;;;16.38;;
61393;SDS011;48555;50.952;-0.120;2024-03-08T05:53:15;32.63;;;16.88;;
61393;SDS011;48555;50.952;-0.120;2024-03-08T05:55:41;26.33;;;15.77;;
61393;SDS011;48555;50.952;-0.120;2024-03-08T05:58:06;30.70;;;16.60;;
61393;SDS011;48555;50.952;-0.120;2024-03-08T06:00:33;31.85;;;17.05;;
61393;SDS011;48555;50.952;-0.120;2024-03-08T06:02:58;24.92;;;14.80;;
61393;SDS011;48555;50.952;-0.120;2024-03-08T06:05:24;29.40;;;16.13;;
61393;SDS011;48555;50.952;-0.120;2024-03-08T06:07:49;26.30;;;15.18;;
61393;SDS011;48555;50.952;-0.120;2024-03-08T06:10:15;25.88;;;16.10;;
61393;SDS011;48555;50.952;-0.120;2024-03-08T06:12:42;27.55;;;15.35;;
61393;SDS011;48555;50.952;-0.120;2024-03-08T06:15:08;24.83;;;15.73;;
61393;SDS011;48555;50.952;-0.120;2024-03-08T06:17:35;27.10;;;15.57;;
61393;SDS011;48555;50.952;-0.120;2024-03-08T06:20:01;28.73;;;16.30;;
61393;SDS011;48555;50.952;-0.120;2024-03-08T06:22:26;28.42;;;15.88;;
61393;SDS011;48555;50.952;-0.120;2024-03-08T06:24:51;27.00;;;16.95;;
61393;SDS011;48555;50.952;-0.120;2024-03-08T06:27:19;29.50;;;16.90;;
61393;SDS011;48555;50.952;-0.120;2024-03-08T06:29:44;34.05;;;18.50;;
61393;SDS011;48555;50.952;-0.120;2024-03-08T06:32:10;26.55;;;14.80;;
61393;SDS011;48555;50.952;-0.120;2024-03-08T06:34:35;28.88;;;16.95;;
61393;SDS011;48555;50.952;-0.120;2024-03-08T06:37:00;27.25;;;16.67;;
61393;SDS011;48555;50.952;-0.120;2024-03-08T06:39:26;33.28;;;18.52;;
61393;SDS011;48555;50.952;-0.120;2024-03-08T06:41:53;29.55;;;16.58;;
61393;SDS011;48555;50.952;-0.120;2024-03-08T06:44:19;30.80;;;18.80;;
61393;SDS011;48555;50.952;-0.120;2024-03-08T06:46:46;33.85;;;16.85;;
61393;SDS011;48555;50.952;-0.120;2024-03-08T06:49:13;29.10;;;17.25;;
61393;SDS011;48555;50.952;-0.120;2024-03-08T06:51:38;28.65;;;18.08;;
61393;SDS011;48555;50.952;-0.120;2024-03-08T06:54:06;25.67;;;16.23;;
61393;SDS011;48555;50.952;-0.120;2024-03-08T06:56:33;28.65;;;17.17;;
61393;SDS011;48555;50.952;-0.120;2024-03-08T06:58:59;26.48;;;15.35;;
61393;SDS011;48555;50.952;-0.120;2024-03-08T07:01:24;33.65;;;18.17;;
61393;SDS011;48555;50.952;-0.120;2024-03-08T07:03:50;24.60;;;13.45;;
61393;SDS011;48555;50.952;-0.120;2024-03-08T07:06:17;26.67;;;14.38;;
61393;SDS011;48555;50.952;-0.120;2024-03-08T07:08:44;28.10;;;16.63;;
61393;SDS011;48555;50.952;-0.120;2024-03-08T07:11:11;28.60;;;15.95;;
61393;SDS011;48555;50.952;-0.120;2024-03-08T07:13:37;29.15;;;16.02;;
61393;SDS011;48555;50.952;-0.120;2024-03-08T07:16:04;26.98;;;17.35;;
61393;SDS011;48555;50.952;-0.120;2024-03-08T07:18:30;28.08;;;16.50;;
61393;SDS011;48555;50.952;-0.120;2024-03-08T07:20:56;28.15;;;16.65;;
61393;SDS011;48555;50.952;-0.120;2024-03-08T07:23:21;33.85;;;18.60;;
61393;SDS011;48555;50.952;-0.120;2024-03-08T07:26:06;26.73;;;17.30;;
61393;SDS011;48555;50.952;-0.120;2024-03-08T07:28:31;25.73;;;15.45;;
61393;SDS011;48555;50.952;-0.120;2024-03-08T07:30:59;34.10;;;17.33;;
61393;SDS011;48555;50.952;-0.120;2024-03-08T07:33:37;27.25;;;16.02;;
61393;SDS011;48555;50.952;-0.120;2024-03-08T07:36:03;26.17;;;16.85;;
61393;SDS011;48555;50.952;-0.120;2024-03-08T07:38:29;30.73;;;14.95;;
61393;SDS011;48555;50.952;-0.120;2024-03-08T07:40:54;23.80;;;13.82;;
61393;SDS011;48555;50.952;-0.120;2024-03-08T07:43:22;23.05;;;13.23;;
61393;SDS011;48555;50.952;-0.120;2024-03-08T07:45:48;25.70;;;14.75;;
61393;SDS011;48555;50.952;-0.120;2024-03-08T07:48:13;27.33;;;15.82;;
61393;SDS011;48555;50.952;-0.120;2024-03-08T07:50:39;26.60;;;16.27;;
61393;SDS011;48555;50.952;-0.120;2024-03-08T07:53:05;26.75;;;14.25;;
61393;SDS011;48555;50.952;-0.120;2024-03-08T07:55:32;26.88;;;15.95;;
61393;SDS011;48555;50.952;-0.120;2024-03-08T07:57:58;24.00;;;14.13;;
61393;SDS011;48555;50.952;-0.120;2024-03-08T08:00:23;26.95;;;13.90;;
61393;SDS011;48555;50.952;-0.120;2024-03-08T08:02:49;21.50;;;12.23;;
61393;SDS011;48555;50.952;-0.120;2024-03-08T08:05:15;25.45;;;15.38;;
61393;SDS011;48555;50.952;-0.120;2024-03-08T08:07:44;23.52;;;14.43;;
61393;SDS011;48555;50.952;-0.120;2024-03-08T08:10:09;25.27;;;15.07;;
61393;SDS011;48555;50.952;-0.120;2024-03-08T08:12:41;25.65;;;15.63;;
61393;SDS011;48555;50.952;-0.120;2024-03-08T08:15:07;23.15;;;14.95;;
61393;SDS011;48555;50.952;-0.120;2024-03-08T08:17:32;24.80;;;13.43;;
61393;SDS011;48555;50.952;-0.120;2024-03-08T08:19:59;24.27;;;14.80;;
61393;SDS011;48555;50.952;-0.120;2024-03-08T08:22:25;27.35;;;16.63;;
61393;SDS011;48555;50.952;-0.120;2024-03-08T08:24:50;23.33;;;14.57;;
61393;SDS011;48555;50.952;-0.120;2024-03-08T08:27:17;24.90;;;15.00;;
61393;SDS011;48555;50.952;-0.120;2024-03-08T08:29:42;23.13;;;13.85;;
61393;SDS011;48555;50.952;-0.120;2024-03-08T08:32:08;21.88;;;14.45;;
61393;SDS011;48555;50.952;-0.120;2024-03-08T08:34:35;29.00;;;18.08;;
61393;SDS011;48555;50.952;-0.120;2024-03-08T08:37:01;21.10;;;12.43;;
61393;SDS011;48555;50.952;-0.120;2024-03-08T08:39:26;22.05;;;14.98;;
61393;SDS011;48555;50.952;-0.120;2024-03-08T08:41:52;24.98;;;15.77;;
61393;SDS011;48555;50.952;-0.120;2024-03-08T08:44:18;24.02;;;14.82;;
61393;SDS011;48555;50.952;-0.120;2024-03-08T08:46:43;25.33;;;16.00;;
61393;SDS011;48555;50.952;-0.120;2024-03-08T08:49:08;22.80;;;14.70;;
61393;SDS011;48555;50.952;-0.120;2024-03-08T08:51:39;23.10;;;15.25;;
61393;SDS011;48555;50.952;-0.120;2024-03-08T08:54:05;25.35;;;14.95;;
61393;SDS011;48555;50.952;-0.120;2024-03-08T08:56:31;22.45;;;13.32;;
61393;SDS011;48555;50.952;-0.120;2024-03-08T08:58:57;20.85;;;13.05;;
61393;SDS011;48555;50.952;-0.120;2024-03-08T09:01:23;22.92;;;12.95;;
61393;SDS011;48555;50.952;-0.120;2024-03-08T09:03:48;23.30;;;13.27;;
61393;SDS011;48555;50.952;-0.120;2024-03-08T09:06:15;23.08;;;14.50;;
61393;SDS011;48555;50.952;-0.120;2024-03-08T09:08:41;25.63;;;16.65;;
61393;SDS011;48555;50.952;-0.120;2024-03-08T09:11:07;20.33;;;12.88;;
61393;SDS011;48555;50.952;-0.120;2024-03-08T09:13:33;26.35;;;16.10;;
61393;SDS011;48555;50.952;-0.120;2024-03-08T09:16:04;24.50;;;15.32;;
61393;SDS011;48555;50.952;-0.120;2024-03-08T09:18:32;24.08;;;15.52;;
61393;SDS011;48555;50.952;-0.120;2024-03-08T09:20:58;20.17;;;12.75;;
61393;SDS011;48555;50.952;-0.120;2024-03-08T09:23:24;25.20;;;15.57;;
61393;SDS011;48555;50.952;-0.120;2024-03-08T09:25:51;24.67;;;14.35;;
61393;SDS011;48555;50.952;-0.120;2024-03-08T09:28:16;20.15;;;12.02;;
61393;SDS011;48555;50.952;-0.120;2024-03-08T09:30:42;24.90;;;15.07;;
61393;SDS011;48555;50.952;-0.120;2024-03-08T09:33:08;25.02;;;15.85;;
61393;SDS011;48555;50.952;-0.120;2024-03-08T09:35:34;26.85;;;16.27;;
61393;SDS011;48555;50.952;-0.120;2024-03-08T09:38:00;21.40;;;11.80;;
61393;SDS011;48555;50.952;-0.120;2024-03-08T09:40:26;27.80;;;15.30;;
61393;SDS011;48555;50.952;-0.120;2024-03-08T09:42:52;18.98;;;12.57;;
61393;SDS011;48555;50.952;-0.120;2024-03-08T09:45:18;17.40;;;11.68;;
61393;SDS011;48555;50.952;-0.120;2024-03-08T09:47:47;20.80;;;11.65;;
61393;SDS011;48555;50.952;-0.120;2024-03-08T09:50:13;21.40;;;14.27;;
61393;SDS011;48555;50.952;-0.120;2024-03-08T09:52:40;23.75;;;14.65;;
61393;SDS011;48555;50.952;-0.120;2024-03-08T09:55:06;25.27;;;13.48;;
61393;SDS011;48555;50.952;-0.120;2024-03-08T09:57:35;25.08;;;15.52;;
61393;SDS011;48555;50.952;-0.120;2024-03-08T10:00:02;21.65;;;14.07;;
61393;SDS011;48555;50.952;-0.120;2024-03-08T10:02:33;23.85;;;13.80;;
61393;SDS011;48555;50.952;-0.120;2024-03-08T10:05:00;25.05;;;13.38;;
61393;SDS011;48555;50.952;-0.120;2024-03-08T10:07:28;23.73;;;13.50;;
61393;SDS011;48555;50.952;-0.120;2024-03-08T10:09:53;19.95;;;13.00;;
61393;SDS011;48555;50.952;-0.120;2024-03-08T10:12:19;19.90;;;11.27;;
61393;SDS011;48555;50.952;-0.120;2024-03-08T10:14:45;21.77;;;15.02;;
61393;SDS011;48555;50.952;-0.120;2024-03-08T10:17:11;21.35;;;11.77;;
61393;SDS011;48555;50.952;-0.120;2024-03-08T10:19:36;21.80;;;13.43;;
61393;SDS011;48555;50.952;-0.120;2024-03-08T10:22:02;24.27;;;14.45;;
61393;SDS011;48555;50.952;-0.120;2024-03-08T10:24:29;22.95;;;13.90;;
61393;SDS011;48555;50.952;-0.120;2024-03-08T10:27:01;19.30;;;12.38;;
61393;SDS011;48555;50.952;-0.120;2024-03-08T10:29:29;19.02;;;12.82;;
61393;SDS011;48555;50.952;-0.120;2024-03-08T10:31:56;24.05;;;14.40;;
61393;SDS011;48555;50.952;-0.120;2024-03-08T10:34:21;14.93;;;9.65;;
61393;SDS011;48555;50.952;-0.120;2024-03-08T10:36:49;20.00;;;12.93;;
61393;SDS011;48555;50.952;-0.120;2024-03-08T10:39:22;23.10;;;14.52;;
61393;SDS011;48555;50.952;-0.120;2024-03-08T10:41:52;18.60;;;11.93;;
61393;SDS011;48555;50.952;-0.120;2024-03-08T10:47:00;21.35;;;12.48;;
61393;SDS011;48555;50.952;-0.120;2024-03-08T10:49:31;18.48;;;11.68;;
61393;SDS011;48555;50.952;-0.120;2024-03-08T10:52:04;17.17;;;10.73;;
61393;SDS011;48555;50.952;-0.120;2024-03-08T10:54:37;16.85;;;8.70;;
61393;SDS011;48555;50.952;-0.120;2024-03-08T10:57:05;18.00;;;10.73;;
61393;SDS011;48555;50.952;-0.120;2024-03-08T10:59:33;20.83;;;12.57;;
61393;SDS011;48555;50.952;-0.120;2024-03-08T11:02:00;17.70;;;10.73;;
61393;SDS011;48555;50.952;-0.120;2024-03-08T11:04:25;18.05;;;11.32;;
61393;SDS011;48555;50.952;-0.120;2024-03-08T11:06:51;22.83;;;12.10;;
61393;SDS011;48555;50.952;-0.120;2024-03-08T11:09:30;18.15;;;9.88;;
61393;SDS011;48555;50.952;-0.120;2024-03-08T11:14:48;19.60;;;11.52;;
61393;SDS011;48555;50.952;-0.120;2024-03-08T11:17:15;18.38;;;11.15;;
61393;SDS011;48555;50.952;-0.120;2024-03-08T11:19:47;20.48;;;11.07;;
61393;SDS011;48555;50.952;-0.120;2024-03-08T11:22:23;16.70;;;10.38;;
61393;SDS011;48555;50.952;-0.120;2024-03-08T11:24:52;18.25;;;10.88;;
61393;SDS011;48555;50.952;-0.120;2024-03-08T11:27:18;17.35;;;11.18;;
61393;SDS011;48555;50.952;-0.120;2024-03-08T11:29:45;18.13;;;11.80;;
61393;SDS011;48555;50.952;-0.120;2024-03-08T11:32:27;16.30;;;10.13;;
61393;SDS011;48555;50.952;-0.120;2024-03-08T11:34:54;17.73;;;11.30;;
61393;SDS011;48555;50.952;-0.120;2024-03-08T11:37:20;16.02;;;10.02;;
61393;SDS011;48555;50.952;-0.120;2024-03-08T11:39:53;16.65;;;9.50;;
61393;SDS011;48555;50.952;-0.120;2024-03-08T11:42:23;18.90;;;10.50;;
61393;SDS011;48555;50.952;-0.120;2024-03-08T11:44:51;16.55;;;10.45;;
61393;SDS011;48555;50.952;-0.120;2024-03-08T11:47:17;15.82;;;9.98;;
61393;SDS011;48555;50.952;-0.120;2024-03-08T11:49:43;17.60;;;11.10;;
61393;SDS011;48555;50.952;-0.120;2024-03-08T11:52:13;13.95;;;9.40;;
61393;SDS011;48555;50.952;-0.120;2024-03-08T11:54:40;14.10;;;8.93;;
61393;SDS011;48555;50.952;-0.120;2024-03-08T11:57:06;19.27;;;10.75;;
61393;SDS011;48555;50.952;-0.120;2024-03-08T11:59:32;16.27;;;10.73;;
61393;SDS011;48555;50.952;-0.120;2024-03-08T12:01:58;17.83;;;11.15;;
61393;SDS011;48555;50.952;-0.120;2024-03-08T12:04:26;14.15;;;8.85;;
61393;SDS011;48555;50.952;-0.120;2024-03-08T12:06:52;16.17;;;10.52;;
61393;SDS011;48555;50.952;-0.120;2024-03-08T12:09:18;12.10;;;7.45;;
61393;SDS011;48555;50.952;-0.120;2024-03-08T12:11:46;16.27;;;10.05;;
61393;SDS011;48555;50.952;-0.120;2024-03-08T12:14:12;13.65;;;9.05;;
61393;SDS011;48555;50.952;-0.120;2024-03-08T12:16:38;16.30;;;9.98;;
61393;SDS011;48555;50.952;-0.120;2024-03-08T12:19:03;17.35;;;9.80;;
61393;SDS011;48555;50.952;-0.120;2024-03-08T12:21:31;13.68;;;8.70;;
61393;SDS011;48555;50.952;-0.120;2024-03-08T12:26:39;14.93;;;9.60;;
61393;SDS011;48555;50.952;-0.120;2024-03-08T12:31:52;13.63;;;8.98;;
61393;SDS011;48555;50.952;-0.120;2024-03-08T12:34:23;15.82;;;9.30;;
61393;SDS011;48555;50.952;-0.120;2024-03-08T12:36:49;16.05;;;10.20;;
61393;SDS011;48555;50.952;-0.120;2024-03-08T12:39:19;18.38;;;10.57;;
61393;SDS011;48555;50.952;-0.120;2024-03-08T12:41:51;15.88;;;9.98;;
61393;SDS011;48555;50.952;-0.120;2024-03-08T12:44:22;18.80;;;11.40;;
61393;SDS011;48555;50.952;-0.120;2024-03-08T12:46:47;18.35;;;11.73;;
61393;SDS011;48555;50.952;-0.120;2024-03-08T12:49:13;16.55;;;10.18;;
61393;SDS011;48555;50.952;-0.120;2024-03-08T12:51:43;16.40;;;10.73;;
61393;SDS011;48555;50.952;-0.120;2024-03-08T12:54:09;17.20;;;10.95;;
61393;SDS011;48555;50.952;-0.120;2024-03-08T12:56:35;16.58;;;10.23;;
61393;SDS011;48555;50.952;-0.120;2024-03-08T12:59:02;17.27;;;10.98;;
61393;SDS011;48555;50.952;-0.120;2024-03-08T13:01:28;15.20;;;10.35;;
61393;SDS011;48555;50.952;-0.120;2024-03-08T13:03:55;17.02;;;11.40;;
61393;SDS011;48555;50.952;-0.120;2024-03-08T13:06:23;17.42;;;10.30;;
61393;SDS011;48555;50.952;-0.120;2024-03-08T13:08:52;15.18;;;9.85;;
61393;SDS011;48555;50.952;-0.120;2024-03-08T13:11:19;14.82;;;9.48;;
61393;SDS011;48555;50.952;-0.120;2024-03-08T13:13:45;15.52;;;9.93;;
61393;SDS011;48555;50.952;-0.120;2024-03-08T13:16:11;18.52;;;11.02;;
61393;SDS011;48555;50.952;-0.120;2024-03-08T13:18:40;16.77;;;11.10;;
61393;SDS011;48555;50.952;-0.120;2024-03-08T13:21:08;16.80;;;10.45;;
61393;SDS011;48555;50.952;-0.120;2024-03-08T13:23:35;14.75;;;8.75;;
61393;SDS011;48555;50.952;-0.120;2024-03-08T13:26:08;14.77;;;9.80;;
61393;SDS011;48555;50.952;-0.120;2024-03-08T13:28:37;15.50;;;10.07;;
61393;SDS011;48555;50.952;-0.120;2024-03-08T13:31:05;15.15;;;8.43;;
61393;SDS011;48555;50.952;-0.120;2024-03-08T13:33:37;11.73;;;6.70;;
61393;SDS011;48555;50.952;-0.120;2024-03-08T13:36:11;16.60;;;11.27;;
61393;SDS011;48555;50.952;-0.120;2024-03-08T13:38:41;16.30;;;10.02;;
61393;SDS011;48555;50.952;-0.120;2024-03-08T13:41:12;18.60;;;10.65;;
61393;SDS011;48555;50.952;-0.120;2024-03-08T13:43:42;16.63;;;10.23;;
61393;SDS011;48555;50.952;-0.120;2024-03-08T13:46:10;15.43;;;9.52;;
61393;SDS011;48555;50.952;-0.120;2024-03-08T13:48:35;14.10;;;8.82;;
61393;SDS011;48555;50.952;-0.120;2024-03-08T13:51:02;14.23;;;8.88;;
61393;SDS011;48555;50.952;-0.120;2024-03-08T13:53:31;16.85;;;10.48;;
61393;SDS011;48555;50.952;-0.120;2024-03-08T13:55:58;16.88;;;10.68;;
61393;SDS011;48555;50.952;-0.120;2024-03-08T13:58:23;16.17;;;10.20;;
61393;SDS011;48555;50.952;-0.120;2024-03-08T14:00:49;17.20;;;9.98;;
61393;SDS011;48555;50.952;-0.120;2024-03-08T14:03:16;14.15;;;9.43;;
61393;SDS011;48555;50.952;-0.120;2024-03-08T14:05:42;16.02;;;10.43;;
61393;SDS011;48555;50.952;-0.120;2024-03-08T14:08:07;15.15;;;9.10;;
61393;SDS011;48555;50.952;-0.120;2024-03-08T14:10:34;16.92;;;10.60;;
61393;SDS011;48555;50.952;-0.120;2024-03-08T14:13:00;16.67;;;9.40;;
61393;SDS011;48555;50.952;-0.120;2024-03-08T14:15:27;16.92;;;10.77;;
61393;SDS011;48555;50.952;-0.120;2024-03-08T14:17:53;16.98;;;11.57;;
61393;SDS011;48555;50.952;-0.120;2024-03-08T14:20:19;22.38;;;11.43;;